sensor_id;sensor_type;location;lat;lon;timestamp;P1;durP1;ratioP1;P2;durP2;ratioP2
67965;SDS011;54749;47.850;9.002;2023-05-10T00:00:28;10.80;;;6.25;;
67965;SDS011;54749;47.850;9.002;2023-05-10T00:03:08;13.82;;;8.05;;
67965;SDS011;54749;47.850;9.002;2023-05-10T00:05:35;10.48;;;5.85;;
67965;SDS011;54749;47.850;9.002;2023-05-10T00:08:02;5.37;;;2.40;;
67965;SDS011;54749;47.850;9.002;2023-05-10T00:10:29;10.88;;;4.78;;
67965;SDS011;54749;47.850;9.002;2023-05-10T00:12:57;8.35;;;3.60;;
67965;SDS011;54749;47.850;9.002;2023-05-10T00:15:24;7.30;;;2.50;;
67965;SDS011;54749;47.850;9.002;2023-05-10T00:17:51;8.93;;;2.33;;
67965;SDS011;54749;47.850;9.002;2023-05-10T00:20:18;4.03;;;1.50;;
67965;SDS011;54749;47.850;9.002;2023-05-10T00:22:45;3.60;;;1.27;;
67965;SDS011;54749;47.850;9.002;2023-05-10T00:25:12;5.38;;;1.67;;
67965;SDS011;54749;47.850;9.002;2023-05-10T00:27:39;6.53;;;1.30;;
67965;SDS011;54749;47.850;9.002;2023-05-10T00:30:06;2.72;;;0.90;;
67965;SDS011;54749;47.850;9.002;2023-05-10T00:32:34;3.00;;;0.70;;
67965;SDS011;54749;47.850;9.002;2023-05-10T00:35:01;2.50;;;0.70;;
67965;SDS011;54749;47.850;9.002;2023-05-10T00:37:29;2.35;;;0.77;;
67965;SDS011;54749;47.850;9.002;2023-05-10T00:39:56;18.95;;;1.17;;
67965;SDS011;54749;47.850;9.002;2023-05-10T00:42:23;2.40;;;0.70;;
67965;SDS011;54749;47.850;9.002;2023-05-10T00:44:52;2.70;;;0.80;;
67965;SDS011;54749;47.850;9.002;2023-05-10T00:47:19;5.70;;;0.80;;
67965;SDS011;54749;47.850;9.002;2023-05-10T00:49:47;2.75;;;0.93;;
67965;SDS011;54749;47.850;9.002;2023-05-10T00:52:14;2.70;;;0.80;;
67965;SDS011;54749;47.850;9.002;2023-05-10T00:54:42;3.88;;;1.00;;
67965;SDS011;54749;47.850;9.002;2023-05-10T00:57:10;3.70;;;0.90;;
67965;SDS011;54749;47.850;9.002;2023-05-10T00:59:37;2.75;;;0.98;;
67965;SDS011;54749;47.850;9.002;2023-05-10T01:02:05;5.88;;;0.95;;
67965;SDS011;54749;47.850;9.002;2023-05-10T01:04:33;3.08;;;1.00;;
67965;SDS011;54749;47.850;9.002;2023-05-10T01:07:02;3.10;;;1.10;;
67965;SDS011;54749;47.850;9.002;2023-05-10T01:09:29;5.53;;;1.07;;
67965;SDS011;54749;47.850;9.002;2023-05-10T01:11:57;2.80;;;1.05;;
67965;SDS011;54749;47.850;9.002;2023-05-10T01:14:24;2.97;;;1.20;;
67965;SDS011;54749;47.850;9.002;2023-05-10T01:16:53;4.00;;;1.02;;
67965;SDS011;54749;47.850;9.002;2023-05-10T01:19:24;2.90;;;1.10;;
67965;SDS011;54749;47.850;9.002;2023-05-10T01:33:28;4.80;;;1.10;;
67965;SDS011;54749;47.850;9.002;2023-05-10T01:38:42;2.85;;;1.10;;
67965;SDS011;54749;47.850;9.002;2023-05-10T01:41:18;5.10;;;1.52;;
67965;SDS011;54749;47.850;9.002;2023-05-10T01:43:55;3.63;;;1.00;;
67965;SDS011;54749;47.850;9.002;2023-05-10T01:46:28;2.88;;;0.90;;
67965;SDS011;54749;47.850;9.002;2023-05-10T01:49:15;3.23;;;0.90;;
67965;SDS011;54749;47.850;9.002;2023-05-10T01:51:50;4.85;;;1.00;;
67965;SDS011;54749;47.850;9.002;2023-05-10T01:54:21;3.67;;;1.30;;
67965;SDS011;54749;47.850;9.002;2023-05-10T01:56:52;2.92;;;1.02;;
67965;SDS011;54749;47.850;9.002;2023-05-10T01:59:28;2.92;;;1.10;;
67965;SDS011;54749;47.850;9.002;2023-05-10T02:01:57;5.87;;;1.00;;
67965;SDS011;54749;47.850;9.002;2023-05-10T02:04:26;3.25;;;1.20;;
67965;SDS011;54749;47.850;9.002;2023-05-10T02:06:54;2.90;;;1.10;;
67965;SDS011;54749;47.850;9.002;2023-05-10T02:09:24;3.90;;;1.35;;
67965;SDS011;54749;47.850;9.002;2023-05-10T02:11:54;3.08;;;1.20;;
67965;SDS011;54749;47.850;9.002;2023-05-10T02:14:22;3.07;;;1.17;;
67965;SDS011;54749;47.850;9.002;2023-05-10T02:16:51;3.00;;;1.00;;
67965;SDS011;54749;47.850;9.002;2023-05-10T02:19:20;3.78;;;1.20;;
67965;SDS011;54749;47.850;9.002;2023-05-10T02:21:48;3.60;;;1.10;;
67965;SDS011;54749;47.850;9.002;2023-05-10T02:24:18;3.50;;;1.00;;
67965;SDS011;54749;47.850;9.002;2023-05-10T02:26:46;3.70;;;1.30;;
67965;SDS011;54749;47.850;9.002;2023-05-10T02:29:15;3.17;;;1.33;;
67965;SDS011;54749;47.850;9.002;2023-05-10T02:31:43;3.50;;;1.60;;
67965;SDS011;54749;47.850;9.002;2023-05-10T02:34:11;3.10;;;1.30;;
67965;SDS011;54749;47.850;9.002;2023-05-10T02:36:40;3.35;;;1.20;;
67965;SDS011;54749;47.850;9.002;2023-05-10T02:39:08;3.33;;;1.50;;
67965;SDS011;54749;47.850;9.002;2023-05-10T02:41:40;5.63;;;1.50;;
67965;SDS011;54749;47.850;9.002;2023-05-10T02:44:09;4.05;;;1.35;;
67965;SDS011;54749;47.850;9.002;2023-05-10T02:46:37;3.15;;;1.35;;
67965;SDS011;54749;47.850;9.002;2023-05-10T02:49:05;3.30;;;1.50;;
67965;SDS011;54749;47.850;9.002;2023-05-10T02:51:32;4.43;;;1.40;;
67965;SDS011;54749;47.850;9.002;2023-05-10T02:54:15;4.38;;;1.48;;
67965;SDS011;54749;47.850;9.002;2023-05-10T02:56:56;3.13;;;1.20;;
67965;SDS011;54749;47.850;9.002;2023-05-10T02:59:24;3.35;;;1.40;;
67965;SDS011;54749;47.850;9.002;2023-05-10T03:01:52;3.30;;;1.50;;
67965;SDS011;54749;47.850;9.002;2023-05-10T03:04:19;3.40;;;1.50;;
67965;SDS011;54749;47.850;9.002;2023-05-10T03:06:47;5.13;;;1.50;;
67965;SDS011;54749;47.850;9.002;2023-05-10T03:09:15;3.28;;;1.40;;
67965;SDS011;54749;47.850;9.002;2023-05-10T03:14:53;3.00;;;1.30;;
67965;SDS011;54749;47.850;9.002;2023-05-10T03:17:34;3.67;;;1.60;;
67965;SDS011;54749;47.850;9.002;2023-05-10T03:20:10;3.60;;;1.50;;
67965;SDS011;54749;47.850;9.002;2023-05-10T03:22:54;3.72;;;1.30;;
67965;SDS011;54749;47.850;9.002;2023-05-10T03:25:26;3.65;;;1.48;;
67965;SDS011;54749;47.850;9.002;2023-05-10T03:27:54;3.90;;;1.60;;
67965;SDS011;54749;47.850;9.002;2023-05-10T03:30:23;3.80;;;1.40;;
67965;SDS011;54749;47.850;9.002;2023-05-10T03:32:51;4.05;;;1.50;;
67965;SDS011;54749;47.850;9.002;2023-05-10T03:35:18;3.92;;;1.65;;
67965;SDS011;54749;47.850;9.002;2023-05-10T03:37:45;4.40;;;1.70;;
67965;SDS011;54749;47.850;9.002;2023-05-10T03:40:13;6.53;;;1.60;;
67965;SDS011;54749;47.850;9.002;2023-05-10T03:42:42;3.60;;;1.73;;
67965;SDS011;54749;47.850;9.002;2023-05-10T03:45:10;4.00;;;1.80;;
67965;SDS011;54749;47.850;9.002;2023-05-10T03:47:37;3.90;;;1.80;;
67965;SDS011;54749;47.850;9.002;2023-05-10T03:50:05;4.90;;;1.90;;
67965;SDS011;54749;47.850;9.002;2023-05-10T03:52:32;5.68;;;2.05;;
67965;SDS011;54749;47.850;9.002;2023-05-10T03:54:59;7.00;;;2.00;;
67965;SDS011;54749;47.850;9.002;2023-05-10T03:57:26;3.63;;;1.60;;
67965;SDS011;54749;47.850;9.002;2023-05-10T03:59:54;5.07;;;2.40;;
67965;SDS011;54749;47.850;9.002;2023-05-10T04:02:22;4.30;;;2.10;;
67965;SDS011;54749;47.850;9.002;2023-05-10T04:04:49;3.40;;;1.70;;
67965;SDS011;54749;47.850;9.002;2023-05-10T04:07:16;3.73;;;1.50;;
67965;SDS011;54749;47.850;9.002;2023-05-10T04:09:44;3.40;;;1.50;;
67965;SDS011;54749;47.850;9.002;2023-05-10T04:12:11;4.05;;;1.80;;
67965;SDS011;54749;47.850;9.002;2023-05-10T04:14:39;3.58;;;1.48;;
67965;SDS011;54749;47.850;9.002;2023-05-10T04:17:05;3.95;;;1.98;;
67965;SDS011;54749;47.850;9.002;2023-05-10T04:19:33;4.57;;;2.00;;
67965;SDS011;54749;47.850;9.002;2023-05-10T04:22:01;4.65;;;2.25;;
67965;SDS011;54749;47.850;9.002;2023-05-10T04:24:29;4.40;;;2.45;;
67965;SDS011;54749;47.850;9.002;2023-05-10T04:26:56;4.07;;;2.10;;
67965;SDS011;54749;47.850;9.002;2023-05-10T04:29:23;7.10;;;2.70;;
67965;SDS011;54749;47.850;9.002;2023-05-10T04:31:50;7.00;;;3.20;;
67965;SDS011;54749;47.850;9.002;2023-05-10T04:34:17;5.78;;;2.92;;
67965;SDS011;54749;47.850;9.002;2023-05-10T04:36:45;5.47;;;2.60;;
67965;SDS011;54749;47.850;9.002;2023-05-10T04:39:12;5.57;;;2.53;;
67965;SDS011;54749;47.850;9.002;2023-05-10T04:41:40;5.57;;;2.60;;
67965;SDS011;54749;47.850;9.002;2023-05-10T04:44:07;4.67;;;1.90;;
67965;SDS011;54749;47.850;9.002;2023-05-10T04:46:34;4.40;;;2.22;;
67965;SDS011;54749;47.850;9.002;2023-05-10T04:49:01;4.43;;;2.25;;
67965;SDS011;54749;47.850;9.002;2023-05-10T04:51:28;5.78;;;2.63;;
67965;SDS011;54749;47.850;9.002;2023-05-10T04:53:56;5.22;;;2.10;;
67965;SDS011;54749;47.850;9.002;2023-05-10T04:56:32;6.13;;;2.00;;
67965;SDS011;54749;47.850;9.002;2023-05-10T04:58:59;5.15;;;2.10;;
67965;SDS011;54749;47.850;9.002;2023-05-10T05:01:26;5.97;;;2.30;;
67965;SDS011;54749;47.850;9.002;2023-05-10T05:03:54;4.55;;;2.10;;
67965;SDS011;54749;47.850;9.002;2023-05-10T05:06:21;4.88;;;2.05;;
67965;SDS011;54749;47.850;9.002;2023-05-10T05:08:48;4.70;;;2.00;;
67965;SDS011;54749;47.850;9.002;2023-05-10T05:11:16;5.00;;;2.00;;
67965;SDS011;54749;47.850;9.002;2023-05-10T05:13:44;4.20;;;2.00;;
67965;SDS011;54749;47.850;9.002;2023-05-10T05:16:11;4.43;;;1.95;;
67965;SDS011;54749;47.850;9.002;2023-05-10T05:18:38;4.07;;;2.17;;
67965;SDS011;54749;47.850;9.002;2023-05-10T05:21:15;4.20;;;2.07;;
67965;SDS011;54749;47.850;9.002;2023-05-10T05:23:43;4.40;;;2.28;;
67965;SDS011;54749;47.850;9.002;2023-05-10T05:26:10;4.75;;;1.90;;
67965;SDS011;54749;47.850;9.002;2023-05-10T05:28:38;4.88;;;2.22;;
67965;SDS011;54749;47.850;9.002;2023-05-10T05:31:05;4.00;;;1.90;;
67965;SDS011;54749;47.850;9.002;2023-05-10T05:33:34;4.10;;;2.13;;
67965;SDS011;54749;47.850;9.002;2023-05-10T05:36:02;4.53;;;2.13;;
67965;SDS011;54749;47.850;9.002;2023-05-10T05:38:31;5.05;;;2.47;;
67965;SDS011;54749;47.850;9.002;2023-05-10T05:40:58;5.70;;;2.22;;
67965;SDS011;54749;47.850;9.002;2023-05-10T05:43:25;5.70;;;2.78;;
67965;SDS011;54749;47.850;9.002;2023-05-10T05:45:52;5.80;;;2.50;;
67965;SDS011;54749;47.850;9.002;2023-05-10T05:48:20;5.10;;;2.47;;
67965;SDS011;54749;47.850;9.002;2023-05-10T05:50:48;4.60;;;2.30;;
67965;SDS011;54749;47.850;9.002;2023-05-10T05:53:15;6.75;;;2.28;;
67965;SDS011;54749;47.850;9.002;2023-05-10T05:55:52;6.65;;;2.33;;
67965;SDS011;54749;47.850;9.002;2023-05-10T05:58:26;7.90;;;4.60;;
67965;SDS011;54749;47.850;9.002;2023-05-10T06:00:54;10.80;;;5.60;;
67965;SDS011;54749;47.850;9.002;2023-05-10T06:03:21;10.27;;;5.95;;
67965;SDS011;54749;47.850;9.002;2023-05-10T06:05:48;9.20;;;4.38;;
67965;SDS011;54749;47.850;9.002;2023-05-10T06:08:15;9.45;;;2.80;;
67965;SDS011;54749;47.850;9.002;2023-05-10T06:10:43;6.20;;;2.70;;
67965;SDS011;54749;47.850;9.002;2023-05-10T06:13:10;4.70;;;1.90;;
67965;SDS011;54749;47.850;9.002;2023-05-10T06:15:38;6.28;;;1.80;;
67965;SDS011;54749;47.850;9.002;2023-05-10T06:18:05;4.70;;;2.17;;
67965;SDS011;54749;47.850;9.002;2023-05-10T06:20:33;4.15;;;1.98;;
67965;SDS011;54749;47.850;9.002;2023-05-10T06:23:00;5.53;;;2.10;;
67965;SDS011;54749;47.850;9.002;2023-05-10T06:25:27;10.65;;;2.20;;
67965;SDS011;54749;47.850;9.002;2023-05-10T06:27:54;7.57;;;2.63;;
67965;SDS011;54749;47.850;9.002;2023-05-10T06:30:25;4.50;;;2.13;;
67965;SDS011;54749;47.850;9.002;2023-05-10T06:32:56;7.20;;;2.35;;
67965;SDS011;54749;47.850;9.002;2023-05-10T06:35:23;5.87;;;2.13;;
67965;SDS011;54749;47.850;9.002;2023-05-10T06:37:51;8.40;;;2.53;;
67965;SDS011;54749;47.850;9.002;2023-05-10T06:40:18;9.57;;;2.92;;
67965;SDS011;54749;47.850;9.002;2023-05-10T06:42:46;6.05;;;2.58;;
67965;SDS011;54749;47.850;9.002;2023-05-10T06:45:14;5.32;;;2.00;;
67965;SDS011;54749;47.850;9.002;2023-05-10T06:47:43;6.17;;;2.27;;
67965;SDS011;54749;47.850;9.002;2023-05-10T06:50:10;6.70;;;2.60;;
67965;SDS011;54749;47.850;9.002;2023-05-10T06:52:40;11.32;;;3.33;;
67965;SDS011;54749;47.850;9.002;2023-05-10T06:55:07;11.55;;;3.60;;
67965;SDS011;54749;47.850;9.002;2023-05-10T06:57:35;13.45;;;3.97;;
67965;SDS011;54749;47.850;9.002;2023-05-10T07:00:03;11.63;;;3.23;;
67965;SDS011;54749;47.850;9.002;2023-05-10T07:02:33;10.43;;;3.40;;
67965;SDS011;54749;47.850;9.002;2023-05-10T07:05:00;8.00;;;2.53;;
67965;SDS011;54749;47.850;9.002;2023-05-10T07:07:29;9.27;;;2.90;;
67965;SDS011;54749;47.850;9.002;2023-05-10T07:09:56;6.78;;;2.20;;
67965;SDS011;54749;47.850;9.002;2023-05-10T07:12:24;9.63;;;2.00;;
67965;SDS011;54749;47.850;9.002;2023-05-10T07:14:52;5.50;;;1.85;;
67965;SDS011;54749;47.850;9.002;2023-05-10T07:17:19;6.70;;;2.33;;
67965;SDS011;54749;47.850;9.002;2023-05-10T07:19:46;4.95;;;1.70;;
67965;SDS011;54749;47.850;9.002;2023-05-10T07:22:14;3.63;;;1.40;;
67965;SDS011;54749;47.850;9.002;2023-05-10T07:24:42;4.23;;;1.77;;
67965;SDS011;54749;47.850;9.002;2023-05-10T07:27:09;4.32;;;1.50;;
67965;SDS011;54749;47.850;9.002;2023-05-10T07:29:36;4.30;;;1.70;;
67965;SDS011;54749;47.850;9.002;2023-05-10T07:32:04;5.15;;;1.80;;
67965;SDS011;54749;47.850;9.002;2023-05-10T07:34:31;6.95;;;1.85;;
67965;SDS011;54749;47.850;9.002;2023-05-10T07:36:58;6.57;;;2.80;;
67965;SDS011;54749;47.850;9.002;2023-05-10T07:39:26;4.32;;;2.10;;
67965;SDS011;54749;47.850;9.002;2023-05-10T07:41:54;4.07;;;1.73;;
67965;SDS011;54749;47.850;9.002;2023-05-10T07:44:22;4.78;;;1.60;;
67965;SDS011;54749;47.850;9.002;2023-05-10T07:46:49;4.85;;;1.90;;
67965;SDS011;54749;47.850;9.002;2023-05-10T07:49:17;4.60;;;1.80;;
67965;SDS011;54749;47.850;9.002;2023-05-10T07:51:44;4.28;;;1.50;;
67965;SDS011;54749;47.850;9.002;2023-05-10T07:54:11;3.63;;;1.40;;
67965;SDS011;54749;47.850;9.002;2023-05-10T07:56:42;3.60;;;1.23;;
67965;SDS011;54749;47.850;9.002;2023-05-10T07:59:14;4.22;;;1.25;;
67965;SDS011;54749;47.850;9.002;2023-05-10T08:01:43;4.60;;;1.63;;
67965;SDS011;54749;47.850;9.002;2023-05-10T08:04:10;3.85;;;1.50;;
67965;SDS011;54749;47.850;9.002;2023-05-10T08:06:38;4.75;;;1.60;;
67965;SDS011;54749;47.850;9.002;2023-05-10T08:09:07;3.58;;;1.30;;
67965;SDS011;54749;47.850;9.002;2023-05-10T08:11:35;3.03;;;1.15;;
67965;SDS011;54749;47.850;9.002;2023-05-10T08:14:02;2.97;;;1.00;;
67965;SDS011;54749;47.850;9.002;2023-05-10T08:16:29;3.45;;;1.05;;
67965;SDS011;54749;47.850;9.002;2023-05-10T08:18:56;2.92;;;1.13;;
67965;SDS011;54749;47.850;9.002;2023-05-10T08:21:24;5.00;;;1.17;;
67965;SDS011;54749;47.850;9.002;2023-05-10T08:23:53;2.95;;;0.90;;
67965;SDS011;54749;47.850;9.002;2023-05-10T08:26:19;3.27;;;0.90;;
67965;SDS011;54749;47.850;9.002;2023-05-10T08:28:48;4.38;;;1.20;;
67965;SDS011;54749;47.850;9.002;2023-05-10T08:31:15;4.15;;;1.02;;
67965;SDS011;54749;47.850;9.002;2023-05-10T08:33:43;4.35;;;0.90;;
67965;SDS011;54749;47.850;9.002;2023-05-10T08:36:10;3.53;;;0.90;;
67965;SDS011;54749;47.850;9.002;2023-05-10T08:38:37;5.27;;;0.93;;
67965;SDS011;54749;47.850;9.002;2023-05-10T08:41:04;2.80;;;0.77;;
67965;SDS011;54749;47.850;9.002;2023-05-10T08:43:33;5.20;;;0.90;;
67965;SDS011;54749;47.850;9.002;2023-05-10T08:46:02;2.75;;;0.88;;
67965;SDS011;54749;47.850;9.002;2023-05-10T08:48:32;3.45;;;0.93;;
67965;SDS011;54749;47.850;9.002;2023-05-10T08:51:01;3.63;;;0.90;;
67965;SDS011;54749;47.850;9.002;2023-05-10T08:53:30;3.80;;;1.00;;
67965;SDS011;54749;47.850;9.002;2023-05-10T08:56:01;3.22;;;0.98;;
67965;SDS011;54749;47.850;9.002;2023-05-10T08:58:29;3.10;;;0.90;;
67965;SDS011;54749;47.850;9.002;2023-05-10T09:00:56;3.65;;;1.20;;
67965;SDS011;54749;47.850;9.002;2023-05-10T09:03:24;5.20;;;1.00;;
67965;SDS011;54749;47.850;9.002;2023-05-10T09:05:51;3.53;;;1.05;;
67965;SDS011;54749;47.850;9.002;2023-05-10T09:08:18;3.60;;;1.20;;
67965;SDS011;54749;47.850;9.002;2023-05-10T09:10:46;3.50;;;1.00;;
67965;SDS011;54749;47.850;9.002;2023-05-10T09:13:15;5.28;;;1.30;;
67965;SDS011;54749;47.850;9.002;2023-05-10T09:15:43;4.03;;;1.23;;
67965;SDS011;54749;47.850;9.002;2023-05-10T09:18:12;4.15;;;1.30;;
67965;SDS011;54749;47.850;9.002;2023-05-10T09:20:39;3.85;;;1.10;;
67965;SDS011;54749;47.850;9.002;2023-05-10T09:23:07;4.75;;;1.70;;
67965;SDS011;54749;47.850;9.002;2023-05-10T09:25:35;4.32;;;1.20;;
67965;SDS011;54749;47.850;9.002;2023-05-10T09:28:02;5.27;;;1.10;;
67965;SDS011;54749;47.850;9.002;2023-05-10T09:30:33;5.13;;;1.10;;
67965;SDS011;54749;47.850;9.002;2023-05-10T09:33:00;5.20;;;1.23;;
67965;SDS011;54749;47.850;9.002;2023-05-10T09:35:29;4.47;;;1.30;;
67965;SDS011;54749;47.850;9.002;2023-05-10T09:38:03;3.90;;;1.30;;
67965;SDS011;54749;47.850;9.002;2023-05-10T09:40:31;4.23;;;1.40;;
67965;SDS011;54749;47.850;9.002;2023-05-10T09:43:00;6.20;;;1.40;;
67965;SDS011;54749;47.850;9.002;2023-05-10T09:45:30;5.13;;;1.33;;
67965;SDS011;54749;47.850;9.002;2023-05-10T09:48:03;5.20;;;1.90;;
67965;SDS011;54749;47.850;9.002;2023-05-10T09:50:30;4.90;;;1.70;;
67965;SDS011;54749;47.850;9.002;2023-05-10T09:52:58;5.63;;;1.60;;
67965;SDS011;54749;47.850;9.002;2023-05-10T09:58:02;5.38;;;1.55;;
67965;SDS011;54749;47.850;9.002;2023-05-10T10:00:37;4.93;;;1.40;;
67965;SDS011;54749;47.850;9.002;2023-05-10T10:03:06;4.88;;;1.38;;
67965;SDS011;54749;47.850;9.002;2023-05-10T10:05:39;5.43;;;1.10;;
67965;SDS011;54749;47.850;9.002;2023-05-10T10:08:10;4.97;;;1.10;;
67965;SDS011;54749;47.850;9.002;2023-05-10T10:10:38;6.20;;;1.40;;
67965;SDS011;54749;47.850;9.002;2023-05-10T10:13:07;5.35;;;1.40;;
67965;SDS011;54749;47.850;9.002;2023-05-10T10:15:35;5.30;;;1.70;;
67965;SDS011;54749;47.850;9.002;2023-05-10T10:18:03;6.77;;;1.70;;
67965;SDS011;54749;47.850;9.002;2023-05-10T10:20:32;7.30;;;1.88;;
67965;SDS011;54749;47.850;9.002;2023-05-10T10:22:59;9.40;;;1.60;;
67965;SDS011;54749;47.850;9.002;2023-05-10T10:25:26;7.43;;;1.50;;
67965;SDS011;54749;47.850;9.002;2023-05-10T10:27:57;8.48;;;1.27;;
67965;SDS011;54749;47.850;9.002;2023-05-10T10:30:43;6.43;;;1.80;;
67965;SDS011;54749;47.850;9.002;2023-05-10T10:36:14;5.18;;;1.40;;
67965;SDS011;54749;47.850;9.002;2023-05-10T10:41:34;6.20;;;1.67;;
67965;SDS011;54749;47.850;9.002;2023-05-10T10:46:58;5.50;;;1.48;;
67965;SDS011;54749;47.850;9.002;2023-05-10T10:55:01;7.25;;;1.70;;
67965;SDS011;54749;47.850;9.002;2023-05-10T10:57:52;4.37;;;1.30;;
67965;SDS011;54749;47.850;9.002;2023-05-10T11:00:30;6.85;;;1.40;;
67965;SDS011;54749;47.850;9.002;2023-05-10T11:03:12;3.90;;;1.40;;
67965;SDS011;54749;47.850;9.002;2023-05-10T11:05:48;4.00;;;1.10;;
67965;SDS011;54749;47.850;9.002;2023-05-10T11:08:29;4.45;;;1.30;;
67965;SDS011;54749;47.850;9.002;2023-05-10T11:11:04;4.03;;;1.37;;
67965;SDS011;54749;47.850;9.002;2023-05-10T11:13:40;5.50;;;1.20;;
67965;SDS011;54749;47.850;9.002;2023-05-10T11:16:10;4.75;;;1.00;;
67965;SDS011;54749;47.850;9.002;2023-05-10T11:18:54;2.78;;;0.90;;
67965;SDS011;54749;47.850;9.002;2023-05-10T11:21:23;4.00;;;1.30;;
67965;SDS011;54749;47.850;9.002;2023-05-10T11:23:54;7.83;;;1.83;;
67965;SDS011;54749;47.850;9.002;2023-05-10T11:26:30;7.07;;;1.95;;
67965;SDS011;54749;47.850;9.002;2023-05-10T11:28:58;6.55;;;1.38;;
67965;SDS011;54749;47.850;9.002;2023-05-10T11:31:27;8.70;;;1.67;;
67965;SDS011;54749;47.850;9.002;2023-05-10T11:33:56;10.70;;;1.90;;
67965;SDS011;54749;47.850;9.002;2023-05-10T11:36:26;5.10;;;1.73;;
67965;SDS011;54749;47.850;9.002;2023-05-10T11:38:59;8.80;;;2.10;;
67965;SDS011;54749;47.850;9.002;2023-05-10T11:41:28;8.35;;;1.50;;
67965;SDS011;54749;47.850;9.002;2023-05-10T11:43:56;8.80;;;1.63;;
67965;SDS011;54749;47.850;9.002;2023-05-10T11:46:26;4.90;;;1.10;;
67965;SDS011;54749;47.850;9.002;2023-05-10T11:48:58;3.30;;;1.30;;
67965;SDS011;54749;47.850;9.002;2023-05-10T11:51:33;4.85;;;1.10;;
67965;SDS011;54749;47.850;9.002;2023-05-10T11:54:01;4.43;;;1.20;;
67965;SDS011;54749;47.850;9.002;2023-05-10T11:56:32;4.53;;;1.20;;
67965;SDS011;54749;47.850;9.002;2023-05-10T11:58:59;7.45;;;1.85;;
67965;SDS011;54749;47.850;9.002;2023-05-10T12:01:28;6.00;;;3.60;;
67965;SDS011;54749;47.850;9.002;2023-05-10T12:03:57;16.00;;;2.35;;
67965;SDS011;54749;47.850;9.002;2023-05-10T12:06:27;5.35;;;1.42;;
67965;SDS011;54749;47.850;9.002;2023-05-10T12:08:56;4.03;;;1.10;;
67965;SDS011;54749;47.850;9.002;2023-05-10T12:11:27;9.65;;;1.40;;
67965;SDS011;54749;47.850;9.002;2023-05-10T12:13:55;5.10;;;1.13;;
67965;SDS011;54749;47.850;9.002;2023-05-10T12:16:28;5.40;;;1.20;;
67965;SDS011;54749;47.850;9.002;2023-05-10T12:18:56;6.07;;;1.25;;
67965;SDS011;54749;47.850;9.002;2023-05-10T12:21:25;4.95;;;1.15;;
67965;SDS011;54749;47.850;9.002;2023-05-10T12:23:56;4.20;;;0.90;;
67965;SDS011;54749;47.850;9.002;2023-05-10T12:26:27;9.70;;;3.57;;
67965;SDS011;54749;47.850;9.002;2023-05-10T12:28:55;5.85;;;2.85;;
67965;SDS011;54749;47.850;9.002;2023-05-10T12:31:57;6.45;;;1.92;;
67965;SDS011;54749;47.850;9.002;2023-05-10T12:34:26;8.82;;;1.30;;
67965;SDS011;54749;47.850;9.002;2023-05-10T12:36:57;8.88;;;1.90;;
67965;SDS011;54749;47.850;9.002;2023-05-10T12:39:25;4.17;;;1.20;;
67965;SDS011;54749;47.850;9.002;2023-05-10T12:41:52;4.68;;;0.90;;
67965;SDS011;54749;47.850;9.002;2023-05-10T12:44:19;5.53;;;0.80;;
67965;SDS011;54749;47.850;9.002;2023-05-10T12:46:46;3.53;;;0.90;;
67965;SDS011;54749;47.850;9.002;2023-05-10T12:49:14;4.15;;;0.73;;
67965;SDS011;54749;47.850;9.002;2023-05-10T12:51:41;3.23;;;0.80;;
67965;SDS011;54749;47.850;9.002;2023-05-10T12:54:08;6.65;;;0.90;;
67965;SDS011;54749;47.850;9.002;2023-05-10T12:56:35;4.72;;;1.00;;
67965;SDS011;54749;47.850;9.002;2023-05-10T12:59:03;6.53;;;1.00;;
67965;SDS011;54749;47.850;9.002;2023-05-10T13:01:31;5.55;;;0.80;;
67965;SDS011;54749;47.850;9.002;2023-05-10T13:03:58;2.90;;;0.90;;
67965;SDS011;54749;47.850;9.002;2023-05-10T13:06:26;6.90;;;0.88;;
67965;SDS011;54749;47.850;9.002;2023-05-10T13:08:54;5.00;;;1.00;;
67965;SDS011;54749;47.850;9.002;2023-05-10T13:11:21;6.22;;;0.90;;
67965;SDS011;54749;47.850;9.002;2023-05-10T13:13:48;4.68;;;0.80;;
67965;SDS011;54749;47.850;9.002;2023-05-10T13:16:15;3.97;;;0.67;;
67965;SDS011;54749;47.850;9.002;2023-05-10T13:18:42;3.92;;;0.80;;
67965;SDS011;54749;47.850;9.002;2023-05-10T13:21:09;3.28;;;0.90;;
67965;SDS011;54749;47.850;9.002;2023-05-10T13:23:37;3.85;;;0.70;;
67965;SDS011;54749;47.850;9.002;2023-05-10T13:26:05;4.32;;;0.90;;
67965;SDS011;54749;47.850;9.002;2023-05-10T13:28:31;3.80;;;0.70;;
67965;SDS011;54749;47.850;9.002;2023-05-10T13:30:59;5.65;;;1.00;;
67965;SDS011;54749;47.850;9.002;2023-05-10T13:33:26;3.22;;;0.85;;
67965;SDS011;54749;47.850;9.002;2023-05-10T13:35:53;3.95;;;1.35;;
67965;SDS011;54749;47.850;9.002;2023-05-10T13:38:21;3.50;;;0.93;;
67965;SDS011;54749;47.850;9.002;2023-05-10T13:40:49;4.93;;;0.80;;
67965;SDS011;54749;47.850;9.002;2023-05-10T13:43:19;4.72;;;0.80;;
67965;SDS011;54749;47.850;9.002;2023-05-10T13:45:46;5.43;;;0.95;;
67965;SDS011;54749;47.850;9.002;2023-05-10T13:48:13;4.00;;;0.90;;
67965;SDS011;54749;47.850;9.002;2023-05-10T13:50:40;3.95;;;0.93;;
67965;SDS011;54749;47.850;9.002;2023-05-10T13:53:07;2.77;;;0.60;;
67965;SDS011;54749;47.850;9.002;2023-05-10T13:55:35;3.22;;;0.90;;
67965;SDS011;54749;47.850;9.002;2023-05-10T13:58:02;3.85;;;0.90;;
67965;SDS011;54749;47.850;9.002;2023-05-10T14:00:29;4.32;;;0.70;;
67965;SDS011;54749;47.850;9.002;2023-05-10T14:02:57;5.68;;;0.93;;
67965;SDS011;54749;47.850;9.002;2023-05-10T14:05:24;4.77;;;0.90;;
67965;SDS011;54749;47.850;9.002;2023-05-10T14:07:52;5.70;;;0.90;;
67965;SDS011;54749;47.850;9.002;2023-05-10T14:10:19;5.57;;;1.02;;
67965;SDS011;54749;47.850;9.002;2023-05-10T14:12:46;9.10;;;1.00;;
67965;SDS011;54749;47.850;9.002;2023-05-10T14:15:13;4.15;;;0.80;;
67965;SDS011;54749;47.850;9.002;2023-05-10T14:17:41;4.37;;;0.80;;
67965;SDS011;54749;47.850;9.002;2023-05-10T14:20:08;3.40;;;1.10;;
67965;SDS011;54749;47.850;9.002;2023-05-10T14:22:35;3.17;;;0.98;;
67965;SDS011;54749;47.850;9.002;2023-05-10T14:25:03;6.22;;;1.88;;
67965;SDS011;54749;47.850;9.002;2023-05-10T14:27:31;5.55;;;2.33;;
67965;SDS011;54749;47.850;9.002;2023-05-10T14:29:59;4.77;;;1.60;;
67965;SDS011;54749;47.850;9.002;2023-05-10T14:32:26;4.18;;;1.50;;
67965;SDS011;54749;47.850;9.002;2023-05-10T14:34:54;4.43;;;1.33;;
67965;SDS011;54749;47.850;9.002;2023-05-10T14:37:21;4.35;;;1.10;;
67965;SDS011;54749;47.850;9.002;2023-05-10T14:39:48;3.75;;;0.77;;
67965;SDS011;54749;47.850;9.002;2023-05-10T14:42:15;2.80;;;0.90;;
67965;SDS011;54749;47.850;9.002;2023-05-10T14:44:42;3.80;;;1.00;;
67965;SDS011;54749;47.850;9.002;2023-05-10T14:47:10;5.57;;;1.42;;
67965;SDS011;54749;47.850;9.002;2023-05-10T14:49:38;3.75;;;1.00;;
67965;SDS011;54749;47.850;9.002;2023-05-10T14:52:05;5.28;;;0.90;;
67965;SDS011;54749;47.850;9.002;2023-05-10T14:54:32;4.00;;;1.00;;
67965;SDS011;54749;47.850;9.002;2023-05-10T14:57:02;4.35;;;1.33;;
67965;SDS011;54749;47.850;9.002;2023-05-10T14:59:29;4.50;;;1.50;;
67965;SDS011;54749;47.850;9.002;2023-05-10T15:01:57;6.70;;;1.50;;
67965;SDS011;54749;47.850;9.002;2023-05-10T15:04:25;7.20;;;1.70;;
67965;SDS011;54749;47.850;9.002;2023-05-10T15:06:54;5.93;;;1.70;;
67965;SDS011;54749;47.850;9.002;2023-05-10T15:09:26;5.63;;;1.50;;
67965;SDS011;54749;47.850;9.002;2023-05-10T15:11:54;3.83;;;1.00;;
67965;SDS011;54749;47.850;9.002;2023-05-10T15:14:22;3.22;;;0.93;;
67965;SDS011;54749;47.850;9.002;2023-05-10T15:16:49;6.18;;;1.30;;
67965;SDS011;54749;47.850;9.002;2023-05-10T15:19:16;6.13;;;1.20;;
67965;SDS011;54749;47.850;9.002;2023-05-10T15:21:43;3.83;;;1.10;;
67965;SDS011;54749;47.850;9.002;2023-05-10T15:24:11;5.10;;;1.10;;
67965;SDS011;54749;47.850;9.002;2023-05-10T15:26:38;4.25;;;0.90;;
67965;SDS011;54749;47.850;9.002;2023-05-10T15:29:06;5.28;;;1.10;;
67965;SDS011;54749;47.850;9.002;2023-05-10T15:31:33;3.27;;;0.80;;